Time;durP1;ratioP1;P1;durP2;ratioP2;P2;SDS_P1;SDS_P2;PMS_P1;PMS_P2;Temp;Humidity;BMP_temperature;BMP_pressure;BME280_temperature;BME280_humidity;BME280_pressure;Samples;Min_cycle;Max_cycle;Signal;HPM_P1;HPM_P2
2022/03/23 00:02:12;;;;;;;40.92;23.75;;;;;;;7.92;86.23;103153.06;5020577;28;20372;-73
2022/03/23 00:04:39;;;;;;;47.78;26.38;;;;;;;7.94;86.05;103160.91;5020416;28;20058;-73
2022/03/23 00:07:05;;;;;;;37.47;23.20;;;;;;;7.90;86.25;103161.97;5010943;28;21243;-73
2022/03/23 00:09:30;;;;;;;45.28;25.10;;;;;;;7.90;86.80;103160.19;5027663;28;20029;-72
2022/03/23 00:11:55;;;;;;;44.55;25.42;;;;;;;7.81;87.13;103143.09;5021535;28;20044;-73
2022/03/23 00:14:21;;;;;;;45.00;26.00;;;;;;;7.93;87.58;103164.47;5018120;28;20124;-73
2022/03/23 00:16:46;;;;;;;51.17;26.65;;;;;;;7.91;87.81;103159.28;5025592;28;20117;-73
2022/03/23 00:19:11;;;;;;;41.47;23.52;;;;;;;7.85;87.99;103150.84;5025481;28;20026;-73
2022/03/23 00:21:38;;;;;;;45.13;25.42;;;;;;;7.88;87.58;103163.81;5008936;28;20549;-73
2022/03/23 00:24:05;;;;;;;46.03;23.48;;;;;;;7.81;87.60;103156.22;5026684;28;20029;-73
2022/03/23 00:26:30;;;;;;;47.20;26.42;;;;;;;7.82;87.75;103165.84;5009796;28;20026;-73
2022/03/23 00:28:56;;;;;;;41.40;26.48;;;;;;;7.79;88.07;103168.59;5010311;28;20117;-73
2022/03/23 00:31:22;;;;;;;44.72;22.98;;;;;;;7.64;87.33;103143.06;5022378;28;20103;-73
2022/03/23 00:33:49;;;;;;;43.67;25.02;;;;;;;7.69;87.07;103167.38;5023335;28;20029;-73
2022/03/23 00:36:15;;;;;;;42.42;23.80;;;;;;;7.69;87.41;103159.47;5027771;28;20113;-73
2022/03/23 00:38:41;;;;;;;40.90;24.77;;;;;;;7.66;86.63;103159.59;5012621;28;20053;-73
2022/03/23 00:41:06;;;;;;;45.55;23.67;;;;;;;7.64;86.31;103166.72;5020926;28;20319;-73
2022/03/23 00:43:32;;;;;;;40.75;24.83;;;;;;;7.61;86.08;103159.00;5014820;28;20137;-73
2022/03/23 00:45:58;;;;;;;44.50;24.00;;;;;;;7.54;85.53;103152.34;5025684;28;20036;-73
2022/03/23 00:48:23;;;;;;;43.25;23.50;;;;;;;7.61;85.01;103164.25;5009784;28;20052;-73
2022/03/23 00:50:49;;;;;;;42.50;22.60;;;;;;;7.58;84.28;103160.00;5025015;28;20417;-73
2022/03/23 00:53:15;;;;;;;42.78;23.88;;;;;;;7.45;84.06;103147.50;5027218;28;20029;-73
2022/03/23 00:55:41;;;;;;;37.63;24.23;;;;;;;7.54;85.48;103162.84;5024054;28;20057;-73
2022/03/23 00:58:07;;;;;;;42.75;24.40;;;;;;;7.49;86.23;103164.81;5025341;28;20029;-73
2022/03/23 01:00:33;;;;;;;45.53;23.52;;;;;;;7.40;87.32;103150.34;5026621;28;20465;-73
2022/03/23 01:02:58;;;;;;;39.13;23.73;;;;;;;7.33;87.49;103149.78;5009081;28;20034;-73
2022/03/23 01:05:24;;;;;;;45.90;25.83;;;;;;;7.41;87.19;103163.41;5009442;28;20053;-73
2022/03/23 01:07:49;;;;;;;44.22;25.02;;;;;;;7.39;87.84;103157.38;5014041;28;20030;-73
2022/03/23 01:10:15;;;;;;;42.35;24.50;;;;;;;7.36;88.44;103160.16;5027178;28;20036;-73
2022/03/23 01:12:45;;;;;;;38.83;22.13;;;;;;;7.33;87.67;103162.91;5018827;28;20029;-73
2022/03/23 01:15:13;;;;;;;43.03;24.23;;;;;;;7.30;87.26;103157.81;5016840;28;20060;-73
2022/03/23 01:17:39;;;;;;;42.15;23.67;;;;;;;7.27;87.16;103151.84;4995795;28;20029;-73
2022/03/23 01:20:06;;;;;;;41.58;23.83;;;;;;;7.21;86.52;103156.47;5021418;28;20549;-73
2022/03/23 01:22:32;;;;;;;43.17;23.00;;;;;;;7.12;85.93;103141.16;5026258;28;20354;-73
2022/03/23 01:24:57;;;;;;;48.47;23.63;;;;;;;7.02;85.30;103133.78;5028551;28;20040;-73
2022/03/23 01:27:23;;;;;;;57.67;25.55;;;;;;;7.05;86.93;103158.09;5011573;28;20087;-73
2022/03/23 01:29:48;;;;;;;39.65;21.40;;;;;;;7.00;87.87;103157.47;5020429;28;20033;-73
2022/03/23 01:32:13;;;;;;;40.85;23.80;;;;;;;6.94;86.83;103155.13;5016367;28;20065;-73
2022/03/23 01:34:39;;;;;;;41.63;23.38;;;;;;;6.87;86.29;103154.53;5009332;28;20075;-73
2022/03/23 01:37:04;;;;;;;43.00;23.85;;;;;;;6.73;86.55;103136.81;5008974;28;20403;-73
2022/03/23 01:39:30;;;;;;;35.13;19.85;;;;;;;6.74;85.92;103135.88;5017908;28;20563;-73
2022/03/23 01:41:55;;;;;;;37.47;20.55;;;;;;;6.76;85.30;103144.53;4986551;28;20018;-73
2022/03/23 01:44:24;;;;;;;41.22;23.15;;;;;;;6.73;85.13;103139.41;5021732;28;20236;-73
2022/03/23 01:47:07;;;;;;;40.78;21.23;;;;;;;6.68;84.81;103143.16;5025083;28;20120;-73
2022/03/23 01:49:34;;;;;;;39.50;21.60;;;;;;;6.54;84.40;103134.13;5025174;28;20037;-73
2022/03/23 01:52:00;;;;;;;38.58;21.58;;;;;;;6.63;84.65;103145.16;5017617;28;20084;-72
2022/03/23 01:54:25;;;;;;;35.35;20.52;;;;;;;6.49;86.36;103136.13;5024199;28;20436;-73
2022/03/23 01:56:51;;;;;;;40.70;21.92;;;;;;;6.50;88.27;103140.44;5022156;28;20030;-73
2022/03/23 01:59:18;;;;;;;43.20;23.75;;;;;;;6.46;89.37;103133.59;5021362;28;20488;-73
2022/03/23 02:01:43;;;;;;;41.30;23.20;;;;;;;6.36;89.91;103111.34;5026059;28;20029;-73
2022/03/23 02:04:09;;;;;;;48.08;25.95;;;;;;;6.50;90.52;103127.31;5024481;28;20072;-73
2022/03/23 02:06:35;;;;;;;43.58;24.15;;;;;;;6.51;89.97;103128.16;5023209;28;20512;-73
2022/03/23 02:09:01;;;;;;;47.03;24.92;;;;;;;6.50;90.87;103123.84;5023149;28;20037;-73
2022/03/23 02:11:27;;;;;;;42.90;23.13;;;;;;;6.41;90.78;103109.34;5029189;28;20034;-73
2022/03/23 02:13:53;;;;;;;39.47;22.80;;;;;;;6.44;90.48;103113.63;5016925;28;20394;-73
2022/03/23 02:16:19;;;;;;;42.97;24.25;;;;;;;6.47;90.05;103118.75;5029839;28;20473;-73
2022/03/23 02:18:45;;;;;;;43.03;24.20;;;;;;;6.45;88.87;103115.34;5023784;28;20121;-73
2022/03/23 02:21:14;;;;;;;43.50;24.73;;;;;;;6.42;88.68;103118.91;5027739;28;20065;-73
2022/03/23 02:23:39;;;;;;;39.10;21.42;;;;;;;6.33;87.74;103103.59;5027555;28;20038;-73
2022/03/23 02:26:05;;;;;;;37.25;21.85;;;;;;;6.37;87.00;103116.50;5011447;28;20052;-73
2022/03/23 02:28:32;;;;;;;41.58;23.23;;;;;;;6.35;87.34;103120.97;5000891;28;20067;-73
2022/03/23 02:30:58;;;;;;;42.45;24.15;;;;;;;6.29;86.95;103115.13;5028287;28;20025;-72
2022/03/23 02:33:23;;;;;;;38.58;21.73;;;;;;;6.22;87.14;103111.06;5029485;28;20416;-72
2022/03/23 02:35:49;;;;;;;43.13;23.23;;;;;;;6.21;87.60;103118.09;5018275;28;20061;-72
2022/03/23 02:38:17;;;;;;;35.80;20.42;;;;;;;6.17;87.55;103113.91;5014770;28;20057;-73
2022/03/23 02:40:46;;;;;;;39.75;22.45;;;;;;;6.12;88.93;103118.50;5017325;28;20028;-73
2022/03/23 02:43:12;;;;;;;37.58;21.95;;;;;;;6.07;88.65;103108.19;5017955;28;20486;-73
2022/03/23 02:45:38;;;;;;;37.75;21.65;;;;;;;6.04;88.87;103118.81;5027007;28;20022;-73
2022/03/23 02:48:06;;;;;;;39.60;22.88;;;;;;;6.00;89.40;103119.84;5020205;28;20038;-73
2022/03/23 02:50:31;;;;;;;41.65;22.27;;;;;;;5.99;89.37;103115.53;5017263;28;20025;-73
2022/03/23 03:04:04;;;;;;;37.15;23.30;;;;;;;5.93;91.51;103121.00;5018970;28;20297;-72
2022/03/23 03:06:29;;;;;;;41.67;24.08;;;;;;;5.91;92.04;103122.84;5017730;28;20021;-72
2022/03/23 03:08:54;;;;;;;39.97;24.05;;;;;;;5.89;92.24;103122.03;5019785;28;20024;-73
2022/03/23 03:11:21;;;;;;;40.95;22.35;;;;;;;5.89;91.86;103119.41;5019734;28;20022;-73
2022/03/23 03:13:49;;;;;;;43.35;23.02;;;;;;;5.87;91.35;103121.25;5019075;28;20029;-72
2022/03/23 03:16:14;;;;;;;46.83;25.00;;;;;;;5.77;90.83;103108.53;5019943;28;20532;-72
2022/03/23 03:18:40;;;;;;;41.58;23.42;;;;;;;5.85;91.71;103123.06;5016070;28;20056;-72
2022/03/23 03:21:07;;;;;;;46.30;23.20;;;;;;;5.81;92.29;103116.25;5018525;28;20037;-72
2022/03/23 03:23:42;;;;;;;43.13;20.95;;;;;;;5.82;91.64;103123.22;5024462;28;20375;-72
2022/03/23 03:26:09;;;;;;;38.22;21.95;;;;;;;5.65;90.13;103103.78;5019448;28;20036;-72
2022/03/23 03:28:37;;;;;;;38.17;21.13;;;;;;;5.69;89.43;103113.22;5018190;28;20113;-72
2022/03/23 03:31:07;;;;;;;39.30;22.13;;;;;;;5.57;88.70;103104.13;5004458;28;20053;-73
2022/03/23 03:33:33;;;;;;;36.85;21.40;;;;;;;5.69;88.98;103117.63;5020383;28;20029;-72
2022/03/23 03:35:59;;;;;;;40.15;21.35;;;;;;;5.62;89.35;103119.63;5005549;28;20025;-72
2022/03/23 03:38:26;;;;;;;40.45;22.00;;;;;;;5.45;88.97;103098.50;5019731;28;20064;-72
2022/03/23 03:40:51;;;;;;;39.00;20.48;;;;;;;5.48;89.40;103114.09;5019979;28;20030;-72
2022/03/23 03:43:17;;;;;;;37.67;20.52;;;;;;;5.52;89.27;103118.28;4998179;28;20033;-72
2022/03/23 03:45:45;;;;;;;38.35;20.45;;;;;;;5.40;89.18;103116.16;5021039;28;20042;-72
2022/03/23 03:48:10;;;;;;;38.58;22.15;;;;;;;5.46;89.74;103126.38;5021429;28;20041;-73
2022/03/23 03:50:36;;;;;;;37.53;21.13;;;;;;;5.36;90.06;103115.44;5024844;28;20022;-73
2022/03/23 03:53:02;;;;;;;40.72;21.17;;;;;;;5.42;90.26;103127.41;5020939;28;20092;-73
2022/03/23 03:55:27;;;;;;;37.22;21.20;;;;;;;5.40;90.75;103124.00;5024934;28;20029;-72
2022/03/23 03:57:53;;;;;;;41.22;20.83;;;;;;;5.33;90.40;103124.28;5016570;28;20113;-72
2022/03/23 04:00:18;;;;;;;42.40;23.35;;;;;;;5.36;91.08;103132.00;5017677;28;20030;-72
2022/03/23 04:02:44;;;;;;;36.85;21.17;;;;;;;5.33;91.02;103124.28;5014112;28;20034;-73
2022/03/23 04:05:09;;;;;;;43.05;22.20;;;;;;;5.25;91.35;103115.00;5018490;28;20058;-73
2022/03/23 04:07:34;;;;;;;40.35;22.55;;;;;;;5.30;90.47;103132.22;5012281;28;20030;-73
2022/03/23 04:10:01;;;;;;;38.53;21.05;;;;;;;5.31;91.89;103133.94;5018988;28;20104;-72
2022/03/23 04:12:26;;;;;;;37.50;20.30;;;;;;;5.30;91.44;103134.84;5019684;28;20044;-72
2022/03/23 04:14:52;;;;;;;38.92;21.55;;;;;;;5.28;92.25;103131.44;5019974;28;20029;-72
2022/03/23 04:17:17;;;;;;;41.08;22.42;;;;;;;5.23;93.18;103129.94;5021871;28;20026;-72
2022/03/23 04:19:42;;;;;;;40.17;22.20;;;;;;;5.22;94.32;103136.91;5025078;28;20108;-72
2022/03/23 04:22:08;;;;;;;40.20;23.15;;;;;;;5.24;95.16;103135.09;5021897;28;20022;-73
2022/03/23 04:24:33;;;;;;;39.70;24.38;;;;;;;5.23;95.73;103143.88;5025797;28;20373;-72
2022/03/23 04:26:59;;;;;;;42.15;23.77;;;;;;;5.26;95.71;103135.88;5016184;28;20034;-72
2022/03/23 04:29:26;;;;;;;44.80;23.75;;;;;;;5.11;94.80;103120.75;5025859;28;20425;-72
2022/03/23 04:31:52;;;;;;;42.40;22.70;;;;;;;5.19;94.58;103139.66;5017220;28;20480;-72
2022/03/23 04:34:17;;;;;;;38.70;20.52;;;;;;;5.13;92.60;103132.03;5017298;28;20033;-72
2022/03/23 04:36:43;;;;;;;46.97;24.80;;;;;;;5.21;92.62;103137.84;5020036;28;20072;-72
2022/03/23 04:39:08;;;;;;;40.35;24.17;;;;;;;5.11;92.95;103115.53;5028957;28;20033;-73
2022/03/23 04:41:33;;;;;;;48.83;25.88;;;;;;;5.16;93.31;103134.50;5024845;28;20056;-72
2022/03/23 04:43:59;;;;;;;50.55;25.40;;;;;;;5.16;94.92;103139.75;5000334;28;20029;-72
2022/03/23 04:46:24;;;;;;;44.58;24.40;;;;;;;5.09;96.42;103123.44;5017716;28;20382;-72
2022/03/23 04:48:49;;;;;;;44.25;25.42;;;;;;;5.17;97.26;103144.09;5015953;28;20029;-72
2022/03/23 04:51:15;;;;;;;41.28;23.85;;;;;;;5.15;97.42;103145.91;5016496;28;20077;-73
2022/03/23 04:53:40;;;;;;;45.95;24.70;;;;;;;5.01;96.72;103119.41;5016555;28;20037;-73
2022/03/23 04:56:06;;;;;;;42.95;23.77;;;;;;;5.10;95.82;103140.84;5001826;28;20523;-72
2022/03/23 04:58:31;;;;;;;45.90;23.90;;;;;;;5.11;96.04;103141.69;5025744;28;20032;-72
2022/03/23 05:00:57;;;;;;;49.63;26.52;;;;;;;5.02;95.84;103132.44;5025932;28;20389;-72
2022/03/23 05:03:24;;;;;;;51.00;28.02;;;;;;;5.05;97.71;103139.31;5009157;28;20029;-72
2022/03/23 05:05:50;;;;;;;49.30;26.38;;;;;;;5.09;98.13;103146.13;5026320;28;20038;-72
2022/03/23 05:08:15;;;;;;;56.05;27.38;;;;;;;5.06;99.36;103148.88;5021724;28;20029;-72
2022/03/23 05:10:40;;;;;;;46.88;26.25;;;;;;;5.09;100.00;103154.84;5016921;28;20712;-73
2022/03/23 05:13:06;;;;;;;45.53;26.80;;;;;;;4.95;99.42;103131.81;5023342;28;20037;-72
2022/03/23 05:15:31;;;;;;;50.38;28.00;;;;;;;5.07;99.68;103161.88;5007760;28;20029;-73
2022/03/23 05:17:57;;;;;;;48.95;26.25;;;;;;;5.10;100.00;103151.31;5021828;28;20037;-72
2022/03/23 05:20:23;;;;;;;45.67;25.83;;;;;;;5.07;100.00;103147.97;5024161;28;20033;-73
2022/03/23 05:22:49;;;;;;;41.45;24.77;;;;;;;5.09;99.33;103148.75;5002253;28;20267;-72
2022/03/23 05:25:14;;;;;;;40.17;24.10;;;;;;;5.09;99.34;103148.75;5021007;28;20171;-72
2022/03/23 05:27:41;;;;;;;46.33;26.05;;;;;;;5.08;99.11;103150.53;5021828;28;20076;-73
2022/03/23 05:30:09;;;;;;;45.08;24.48;;;;;;;5.10;98.71;103151.31;5023118;28;20029;-73
2022/03/23 05:32:35;;;;;;;49.13;26.80;;;;;;;5.09;98.90;103154.00;5016478;28;20164;-72
2022/03/23 05:35:02;;;;;;;45.60;23.48;;;;;;;5.03;97.57;103143.75;5018937;28;20108;-72
2022/03/23 05:37:27;;;;;;;39.17;23.67;;;;;;;5.04;96.90;103142.84;5017063;28;20029;-73
2022/03/23 05:39:52;;;;;;;45.75;23.27;;;;;;;4.96;95.57;103145.75;5019881;28;20452;-72
2022/03/23 05:42:18;;;;;;;41.97;23.98;;;;;;;5.05;95.73;103152.41;5012724;28;20044;-72
2022/03/23 05:44:45;;;;;;;44.88;24.77;;;;;;;5.02;94.50;103158.59;5020675;28;20030;-72
2022/03/23 05:47:10;;;;;;;38.38;22.92;;;;;;;4.99;95.16;103139.53;5018871;28;20033;-74
2022/03/23 05:49:35;;;;;;;46.88;26.45;;;;;;;5.08;95.80;103153.16;4999222;28;20041;-73
2022/03/23 05:52:01;;;;;;;52.40;26.88;;;;;;;5.13;97.43;103171.28;5020800;28;20509;-73
2022/03/23 05:54:26;;;;;;;45.47;25.80;;;;;;;5.10;97.95;103155.72;5017729;28;20548;-73
2022/03/23 05:56:52;;;;;;;48.90;26.70;;;;;;;5.24;97.88;103163.03;5012445;28;20091;-72
2022/03/23 05:59:18;;;;;;;50.13;25.70;;;;;;;5.25;96.93;103165.59;5019612;28;20469;-73
2022/03/23 06:01:44;;;;;;;46.72;26.10;;;;;;;5.23;96.68;103156.09;5015577;28;20096;-73
2022/03/23 06:04:10;;;;;;;47.03;25.67;;;;;;;5.29;95.95;103158.47;5015744;28;20061;-73
2022/03/23 06:06:36;;;;;;;46.30;23.65;;;;;;;5.34;95.06;103169.63;5019272;28;20091;-72
2022/03/23 06:09:03;;;;;;;45.63;24.52;;;;;;;5.36;93.82;103168.66;5010869;28;20034;-72
2022/03/23 06:11:28;;;;;;;39.47;23.48;;;;;;;5.40;93.33;103173.75;5016271;28;20479;-73
2022/03/23 06:13:53;;;;;;;37.50;20.70;;;;;;;5.42;91.10;103171.94;5012116;28;20090;-73
2022/03/23 06:16:19;;;;;;;43.42;22.02;;;;;;;5.44;90.35;103172.75;5013118;28;20122;-72
2022/03/23 06:18:45;;;;;;;43.95;22.65;;;;;;;5.47;90.30;103175.25;5015523;28;20506;-73
2022/03/23 06:21:11;;;;;;;38.58;22.35;;;;;;;5.54;90.76;103174.09;5012929;28;20085;-73
2022/03/23 06:23:36;;;;;;;46.75;24.15;;;;;;;5.56;90.81;103180.97;5016177;28;20449;-72
2022/03/23 06:26:04;;;;;;;44.40;24.67;;;;;;;5.58;92.41;103170.44;5013959;28;20053;-72
2022/03/23 06:28:30;;;;;;;45.50;24.08;;;;;;;5.68;92.19;103178.78;5014458;28;20034;-72
2022/03/23 06:30:55;;;;;;;42.70;25.15;;;;;;;5.68;92.88;103174.41;5012958;28;20030;-75
2022/03/23 06:33:20;;;;;;;41.22;25.05;;;;;;;5.74;93.02;103162.81;5012452;28;20472;-72
2022/03/23 06:35:46;;;;;;;43.67;24.55;;;;;;;5.95;93.20;103190.81;4992440;28;20450;-72
2022/03/23 06:38:13;;;;;;;43.55;23.85;;;;;;;6.06;93.10;103190.38;5010361;28;20037;-73
2022/03/23 06:40:38;;;;;;;44.42;23.85;;;;;;;6.17;93.13;103198.66;5010399;28;20029;-73
2022/03/23 06:43:04;;;;;;;41.65;24.88;;;;;;;6.29;92.98;103196.44;5010698;28;20095;-72
2022/03/23 06:45:29;;;;;;;42.47;24.08;;;;;;;6.34;93.42;103184.00;5011092;28;20050;-72
2022/03/23 06:47:56;;;;;;;48.15;25.25;;;;;;;6.55;94.43;103198.81;5007005;28;20048;-73
2022/03/23 06:50:22;;;;;;;49.42;25.20;;;;;;;6.57;93.79;103180.38;5007538;28;20034;-71
2022/03/23 06:52:47;;;;;;;36.65;23.65;;;;;;;6.79;92.86;103210.03;5007919;28;20470;-71
2022/03/23 06:55:13;;;;;;;38.92;22.73;;;;;;;6.88;92.64;103205.25;5011808;28;20505;-71
2022/03/23 06:57:38;;;;;;;40.38;23.23;;;;;;;7.03;92.16;103211.59;5016124;28;20104;-71
2022/03/23 07:00:15;;;;;;;43.92;25.60;;;;;;;7.15;91.95;103213.69;5013533;28;20040;-73
2022/03/23 07:02:45;;;;;;;46.25;26.05;;;;;;;7.27;91.88;103214.88;5015644;28;20033;-71
2022/03/23 07:05:12;;;;;;;41.88;24.45;;;;;;;7.36;92.07;103217.97;5018179;28;20170;-71
2022/03/23 07:07:38;;;;;;;43.58;23.77;;;;;;;7.48;92.67;103220.94;5016692;28;20048;-72
2022/03/23 07:10:05;;;;;;;40.53;24.45;;;;;;;7.63;91.99;103215.81;5017366;28;20030;-74
2022/03/23 07:12:31;;;;;;;36.38;22.02;;;;;;;7.66;89.86;103213.97;5018320;28;20033;-73
2022/03/23 07:14:56;;;;;;;40.50;23.00;;;;;;;7.88;88.51;103214.63;5017296;28;20029;-73
2022/03/23 07:17:22;;;;;;;41.28;21.95;;;;;;;8.04;87.42;103218.22;5017569;28;20037;-73
2022/03/23 07:19:47;;;;;;;38.63;22.45;;;;;;;8.22;86.85;103226.97;5019346;28;20037;-72
2022/03/23 07:22:15;;;;;;;39.25;23.58;;;;;;;8.42;86.67;103226.00;5019488;28;20413;-72
2022/03/23 07:24:40;;;;;;;35.92;21.52;;;;;;;8.56;85.76;103212.16;5020123;28;20155;-74
2022/03/23 07:27:05;;;;;;;36.03;21.13;;;;;;;8.64;84.59;103220.53;4991169;28;20184;-72
2022/03/23 07:29:31;;;;;;;35.80;20.30;;;;;;;8.65;82.48;103232.75;4998467;28;20030;-72
2022/03/23 07:31:57;;;;;;;48.45;21.80;;;;;;;8.84;82.92;103226.50;5012688;28;20034;-72
2022/03/23 07:34:23;;;;;;;36.75;21.27;;;;;;;9.02;82.15;103233.47;5013029;28;20568;-73
2022/03/23 07:36:48;;;;;;;38.45;22.20;;;;;;;9.45;81.67;103233.78;5017144;28;20113;-73
2022/03/23 07:39:20;;;;;;;34.05;21.75;;;;;;;9.66;79.96;103225.59;5016437;28;20033;-74
2022/03/23 07:41:50;;;;;;;34.13;21.40;;;;;;;10.12;77.71;103232.69;5004100;28;20034;-72
2022/03/23 07:44:18;;;;;;;36.83;21.02;;;;;;;10.42;77.76;103228.31;5018951;28;20559;-72
2022/03/23 07:46:46;;;;;;;31.52;20.23;;;;;;;10.70;76.61;103238.06;5019685;28;20474;-73
2022/03/23 07:49:14;;;;;;;33.72;20.73;;;;;;;10.85;74.97;103222.25;5018515;28;20041;-73
2022/03/23 07:51:40;;;;;;;30.75;18.70;;;;;;;10.92;73.91;103239.41;5017523;28;20025;-74
2022/03/23 07:54:06;;;;;;;35.65;22.85;;;;;;;10.99;74.27;103232.81;5019102;28;20172;-73
2022/03/23 07:56:32;;;;;;;34.85;20.15;;;;;;;11.41;74.64;103236.38;5014845;28;20018;-73
2022/03/23 07:58:58;;;;;;;30.80;20.58;;;;;;;11.47;69.36;103245.69;5018140;28;20044;-73
2022/03/23 08:01:23;;;;;;;39.72;21.63;;;;;;;12.03;70.44;103243.03;5016921;28;20529;-73
2022/03/23 08:03:49;;;;;;;32.60;19.85;;;;;;;12.40;66.50;103241.41;5014757;28;20260;-75
2022/03/23 08:06:14;;;;;;;35.45;20.02;;;;;;;12.70;65.20;103248.25;5015856;28;20494;-74
2022/03/23 08:08:39;;;;;;;30.05;19.95;;;;;;;12.93;65.60;103244.88;5015283;28;20366;-74
2022/03/23 08:11:05;;;;;;;29.70;20.00;;;;;;;13.54;62.10;103246.78;5000582;28;20032;-75
2022/03/23 08:13:30;;;;;;;29.45;20.73;;;;;;;13.15;62.12;103233.59;5012672;28;20253;-73
2022/03/23 08:15:56;;;;;;;27.92;20.65;;;;;;;13.82;64.49;103253.59;4998337;28;20062;-73
2022/03/23 08:18:21;;;;;;;36.22;20.50;;;;;;;13.95;62.33;103248.22;4998748;28;20515;-75
2022/03/23 08:20:50;;;;;;;28.20;20.92;;;;;;;13.88;63.07;103255.78;5016676;28;20033;-73
2022/03/23 08:23:16;;;;;;;34.10;21.35;;;;;;;14.55;63.22;103251.75;5016910;28;20026;-73
2022/03/23 08:25:42;;;;;;;32.38;21.25;;;;;;;15.64;60.79;103240.47;5016367;28;20026;-74
2022/03/23 08:28:09;;;;;;;29.23;20.77;;;;;;;15.60;60.04;103250.50;5016219;28;20052;-74
2022/03/23 08:30:36;;;;;;;36.03;21.05;;;;;;;15.76;57.79;103265.28;4999464;28;20025;-73
2022/03/23 08:33:03;;;;;;;29.85;20.67;;;;;;;15.74;58.30;103257.44;5017464;28;20034;-73
2022/03/23 08:35:29;;;;;;;28.98;19.58;;;;;;;16.25;56.13;103255.91;5017024;28;20029;-73
2022/03/23 08:37:55;;;;;;;27.55;19.40;;;;;;;17.02;50.67;103249.34;5015708;28;20037;-74
2022/03/23 08:40:21;;;;;;;23.33;17.90;;;;;;;17.16;48.75;103262.34;5016598;28;20076;-74
2022/03/23 08:42:46;;;;;;;26.60;17.92;;;;;;;17.06;47.69;103253.44;5016597;28;20065;-74
2022/03/23 08:45:12;;;;;;;28.40;18.10;;;;;;;16.67;47.10;103263.88;5015496;28;20026;-74
2022/03/23 08:47:38;;;;;;;26.65;17.90;;;;;;;17.16;47.19;103265.00;5000244;28;20490;-74
2022/03/23 08:50:07;;;;;;;22.13;17.13;;;;;;;16.67;47.38;103267.38;5014704;28;20056;-75
2022/03/23 08:52:34;;;;;;;21.30;17.63;;;;;;;16.74;46.96;103251.72;5016578;28;20044;-74
2022/03/23 08:55:03;;;;;;;19.77;15.45;;;;;;;17.82;43.76;103263.66;5016639;28;20056;-74
2022/03/23 08:57:29;;;;;;;21.92;16.85;;;;;;;17.24;44.68;103254.47;5017321;28;20041;-74
2022/03/23 08:59:54;;;;;;;22.13;17.08;;;;;;;17.23;45.61;103262.66;5014503;28;20453;-74
2022/03/23 09:02:20;;;;;;;22.65;17.25;;;;;;;18.19;43.71;103266.47;4998248;28;20058;-74
2022/03/23 09:04:46;;;;;;;22.48;17.20;;;;;;;18.38;42.61;103268.28;5016338;28;20602;-74
2022/03/23 09:07:11;;;;;;;20.48;16.77;;;;;;;18.08;42.50;103275.47;5016114;28;20489;-75
2022/03/23 09:09:36;;;;;;;21.42;15.45;;;;;;;18.18;43.39;103269.28;5014202;28;20116;-74
2022/03/23 09:12:02;;;;;;;22.00;15.15;;;;;;;19.24;40.90;103265.50;5018127;28;20049;-75
2022/03/23 09:14:28;;;;;;;21.48;16.33;;;;;;;19.81;40.69;103273.38;5014814;28;20152;-74
2022/03/23 09:16:53;;;;;;;18.25;16.27;;;;;;;19.67;40.58;103272.03;5000676;28;20030;-74
2022/03/23 09:19:20;;;;;;;20.52;16.48;;;;;;;19.58;40.58;103272.94;5012168;28;20037;-74
2022/03/23 09:21:50;;;;;;;19.23;15.70;;;;;;;19.75;39.18;103273.13;5016629;28;20116;-75
2022/03/23 09:24:19;;;;;;;18.25;16.17;;;;;;;19.72;39.32;103276.97;5024538;28;20025;-75
2022/03/23 09:26:45;;;;;;;18.75;14.93;;;;;;;19.79;39.03;103269.16;5017209;28;20022;-74
2022/03/23 09:29:10;;;;;;;23.10;15.32;;;;;;;20.94;37.87;103268.22;5016044;28;20037;-74
2022/03/23 09:31:36;;;;;;;20.10;15.70;;;;;;;20.68;37.17;103260.19;5013421;28;20108;-74
2022/03/23 09:34:02;;;;;;;17.80;14.95;;;;;;;20.38;38.01;103262.28;5018058;28;20021;-74
2022/03/23 09:39:14;;;;;;;17.60;14.65;;;;;;;20.35;38.10;103265.31;5016112;28;20112;-74
2022/03/23 09:41:42;;;;;;;18.73;15.00;;;;;;;20.49;37.89;103270.13;5010431;28;20034;-75
2022/03/23 09:44:08;;;;;;;19.95;14.95;;;;;;;20.25;37.73;103259.19;5017554;28;20031;-74
2022/03/23 09:46:33;;;;;;;18.10;15.05;;;;;;;21.09;36.26;103255.03;5014182;28;20096;-75
2022/03/23 09:48:59;;;;;;;23.77;15.48;;;;;;;20.54;36.91;103262.44;5016375;28;20344;-74
2022/03/23 09:51:25;;;;;;;17.50;14.18;;;;;;;21.39;36.31;103259.00;5017448;28;20526;-74
2022/03/23 09:53:52;;;;;;;18.98;14.40;;;;;;;22.15;36.17;103259.81;5013055;28;20745;-74
2022/03/23 09:56:18;;;;;;;17.63;15.45;;;;;;;21.89;35.59;103251.91;5014528;28;20100;-75
2022/03/23 09:58:43;;;;;;;20.38;15.45;;;;;;;21.80;34.89;103244.84;5002429;28;20600;-75
2022/03/23 10:01:27;;;;;;;17.67;15.18;;;;;;;21.52;35.38;103262.09;5010584;28;20031;-75
2022/03/23 10:04:18;;;;;;;17.10;14.45;;;;;;;22.41;34.67;103256.97;5014769;28;20045;-75
2022/03/23 10:07:14;;;;;;;17.75;15.27;;;;;;;21.48;35.08;103257.22;5015702;28;20490;-75
2022/03/23 10:10:17;;;;;;;17.45;14.82;;;;;;;21.18;33.96;103264.81;5012642;28;20030;-75
2022/03/23 10:13:10;;;;;;;16.95;14.63;;;;;;;20.04;34.02;103254.16;5019349;28;20508;-74
2022/03/23 10:16:13;;;;;;;16.77;14.52;;;;;;;21.06;34.36;103255.38;5011063;28;20036;-74
2022/03/23 10:18:51;;;;;;;17.65;13.70;;;;;;;21.85;33.47;103259.47;5022897;28;20045;-74
2022/03/23 10:21:17;;;;;;;17.75;14.77;;;;;;;22.53;33.07;103260.97;5016285;28;20029;-74
2022/03/23 10:24:11;;;;;;;17.77;15.35;;;;;;;22.98;31.94;103254.13;5019467;28;20025;-74
2022/03/23 10:26:38;;;;;;;18.02;16.13;;;;;;;22.68;31.91;103252.22;5012879;28;20033;-74
2022/03/23 10:29:11;;;;;;;18.05;15.93;;;;;;;23.49;32.34;103242.13;5022092;28;20440;-74
2022/03/23 10:31:36;;;;;;;19.08;15.60;;;;;;;22.47;31.96;103248.22;5013384;28;20497;-75
2022/03/23 10:34:10;;;;;;;18.45;14.43;;;;;;;22.93;32.96;103245.75;5017103;28;20033;-75
2022/03/23 10:36:38;;;;;;;16.73;15.00;;;;;;;23.52;31.36;103247.16;5021029;28;20469;-75
2022/03/23 10:39:06;;;;;;;19.73;14.15;;;;;;;22.99;32.87;103244.19;5018577;28;20496;-75
2022/03/23 10:41:31;;;;;;;16.77;14.68;;;;;;;23.26;31.66;103228.63;5021753;28;20014;-74
2022/03/23 10:43:58;;;;;;;17.20;15.23;;;;;;;22.33;32.01;103232.78;5017738;28;20371;-75
2022/03/23 10:46:24;;;;;;;15.55;13.95;;;;;;;22.15;31.44;103241.00;5022705;28;20099;-74
2022/03/23 10:48:59;;;;;;;15.50;13.48;;;;;;;22.40;31.11;103244.53;5021252;28;20045;-75
2022/03/23 10:51:30;;;;;;;15.10;13.50;;;;;;;22.04;32.44;103233.28;5020080;28;20533;-74
2022/03/23 10:53:56;;;;;;;16.30;13.27;;;;;;;22.73;31.54;103233.69;5015137;28;20022;-74
2022/03/23 10:56:34;;;;;;;15.88;14.18;;;;;;;22.94;32.16;103222.34;5021938;28;20033;-75
2022/03/23 10:59:22;;;;;;;16.38;13.15;;;;;;;23.29;31.08;103234.47;5020654;28;20025;-74
2022/03/23 11:02:10;;;;;;;16.92;14.98;;;;;;;22.98;31.57;103224.50;5017929;28;20029;-74
2022/03/23 11:04:53;;;;;;;18.38;14.07;;;;;;;22.96;31.29;103226.53;5003327;28;20143;-74
2022/03/23 11:07:27;;;;;;;17.30;14.23;;;;;;;23.38;31.41;103225.31;5018873;28;20112;-74
2022/03/23 11:18:11;;;;;;;16.95;12.73;;;;;;;23.57;31.79;103220.50;5018702;28;20468;-74
2022/03/23 11:20:39;;;;;;;17.70;14.15;;;;;;;23.09;31.97;103222.47;5023210;28;20380;-75
2022/03/23 11:23:24;;;;;;;19.35;13.55;;;;;;;23.74;30.79;103211.28;5017447;28;20026;-74
2022/03/23 11:25:52;;;;;;;14.38;12.88;;;;;;;24.62;30.48;103231.41;5021423;28;20274;-74
2022/03/23 11:28:18;;;;;;;15.55;12.75;;;;;;;24.82;29.80;103217.34;5020951;28;20056;-74
2022/03/23 11:30:45;;;;;;;16.13;11.70;;;;;;;26.18;29.46;103218.38;5014980;28;20107;-74
2022/03/23 11:33:14;;;;;;;15.57;13.68;;;;;;;24.77;29.67;103207.09;5007041;28;20133;-75
2022/03/23 11:35:49;;;;;;;15.32;12.35;;;;;;;24.37;30.24;103211.91;5012541;28;20025;-74
2022/03/23 11:38:24;;;;;;;18.67;12.73;;;;;;;24.52;29.38;103208.41;5010834;28;20954;-74